TimeEST,TemperatureF,Dew PointF,Humidity,Sea Level PressureIn,VisibilityMPH,Wind Direction,Wind SpeedMPH,Gust SpeedMPH,PrecipitationIn,Events,Conditions,WindDirDegrees,DateUTC
12:42 AM,21.9,12.0,66,30.21,10.0,NW,11.5,21.9,N/A,,Mostly Cloudy,320,2013-11-13 05:42:00
12:53 AM,21.9,12.0,66,30.29,10.0,NW,13.8,24.2,N/A,,Overcast,310,2013-11-13 05:53:00
1:53 AM,21.0,12.0,68,30.28,10.0,NW,12.7,21.9,N/A,,Partly Cloudy,310,2013-11-13 06:53:00
2:45 AM,21.0,12.0,68,30.20,10.0,NW,15.0,20.7,N/A,,Mostly Cloudy,310,2013-11-13 07:45:00
2:53 AM,21.0,12.9,71,30.28,8.0,NW,15.0,21.9,0.00,Snow,Light Snow,310,2013-11-13 07:53:00
3:53 AM,21.0,14.0,74,30.29,2.5,NW,13.8,-,0.00,Snow,Light Snow,320,2013-11-13 08:53:00
4:09 AM,21.0,14.0,74,30.20,4.0,NW,16.1,24.2,0.00,Snow,Light Snow,310,2013-11-13 09:09:00
4:38 AM,19.9,15.1,81,30.22,1.8,NW,11.5,21.9,0.00,Snow,Light Snow,310,2013-11-13 09:38:00
4:46 AM,21.0,15.1,78,30.22,3.0,NW,13.8,26.5,0.00,Snow,Light Snow,320,2013-11-13 09:46:00
4:53 AM,21.0,14.0,74,30.31,5.0,NNW,17.3,25.3,0.00,Snow,Light Snow,330,2013-11-13 09:53:00
5:27 AM,19.9,12.0,71,30.22,10.0,NW,17.3,28.8,0.00,,Partly Cloudy,320,2013-11-13 10:27:00
5:53 AM,19.0,12.0,74,30.32,10.0,NW,13.8,-,0.00,,Clear,320,2013-11-13 10:53:00
6:53 AM,19.0,10.9,71,30.34,10.0,NW,15.0,24.2,N/A,,Clear,320,2013-11-13 11:53:00
7:28 AM,19.0,10.9,71,30.26,10.0,NW,13.8,27.6,N/A,,Mostly Cloudy,320,2013-11-13 12:28:00
7:50 AM,19.4,10.4,68,30.25,10.0,NNW,19.6,32.2,N/A,,Mostly Cloudy,330,2013-11-13 12:50:00
7:53 AM,19.9,10.9,68,30.35,10.0,NW,17.3,32.2,N/A,,Mostly Cloudy,320,2013-11-13 12:53:00
8:02 AM,19.9,10.0,65,30.27,10.0,NNW,19.6,32.2,N/A,,Scattered Clouds,330,2013-11-13 13:02:00
8:53 AM,21.0,10.0,63,30.37,10.0,NNW,19.6,31.1,N/A,,Clear,330,2013-11-13 13:53:00
9:53 AM,24.1,10.9,57,30.38,10.0,NNW,18.4,24.2,N/A,,Clear,330,2013-11-13 14:53:00
10:53 AM,26.1,10.0,51,30.36,10.0,NNW,21.9,32.2,N/A,,Clear,330,2013-11-13 15:53:00
11:53 AM,28.0,12.0,51,30.36,10.0,NNW,18.4,25.3,N/A,,Clear,330,2013-11-13 16:53:00
12:53 PM,27.0,10.9,51,30.35,10.0,NNW,12.7,25.3,N/A,,Partly Cloudy,330,2013-11-13 17:53:00
1:53 PM,30.0,12.9,49,30.34,10.0,WNW,16.1,24.2,N/A,,Partly Cloudy,290,2013-11-13 18:53:00
2:53 PM,28.9,12.9,51,30.34,10.0,WNW,15.0,24.2,N/A,,Clear,290,2013-11-13 19:53:00
3:53 PM,30.0,14.0,51,30.33,10.0,NW,10.4,-,N/A,,Clear,310,2013-11-13 20:53:00
4:53 PM,28.0,14.0,56,30.32,10.0,WNW,5.8,-,N/A,,Clear,300,2013-11-13 21:53:00
5:53 PM,27.0,15.1,61,30.34,10.0,WNW,3.5,-,N/A,,Clear,300,2013-11-13 22:53:00
6:53 PM,28.0,15.1,58,30.32,10.0,West,9.2,-,N/A,,Clear,280,2013-11-13 23:53:00
7:53 PM,28.0,17.1,63,30.31,10.0,West,11.5,-,N/A,,Clear,280,2013-11-14 00:53:00
8:53 PM,28.0,17.1,63,30.30,10.0,West,15.0,-,N/A,,Clear,280,2013-11-14 01:53:00
9:53 PM,28.0,16.0,61,30.29,10.0,West,12.7,-,N/A,,Clear,280,2013-11-14 02:53:00
10:53 PM,27.0,16.0,63,30.28,10.0,West,8.1,-,N/A,,Clear,270,2013-11-14 03:53:00
11:53 PM,27.0,15.1,61,30.26,10.0,West,12.7,-,N/A,,Clear,270,2013-11-14 04:53:00